Time;durP1;ratioP1;P1;durP2;ratioP2;P2;SDS_P1;SDS_P2;PMS_P1;PMS_P2;Temp;Humidity;BMP_temperature;BMP_pressure;BME280_temperature;BME280_humidity;BME280_pressure;Samples;Min_cycle;Max_cycle;Signal;HPM_P1;HPM_P2
2022/05/26 00:01:16;;;;;;;1.27;1.17;;;13.70;99.00;;;;;;4934130;29;20493;-80
2022/05/26 00:03:44;;;;;;;1.47;1.37;;;13.70;98.80;;;;;;4934190;29;20454;-80
2022/05/26 00:06:13;;;;;;;2.50;1.33;;;13.70;98.80;;;;;;4933261;29;20458;-80
2022/05/26 00:08:40;;;;;;;1.20;1.20;;;13.70;98.90;;;;;;4933627;29;20477;-80
2022/05/26 00:11:09;;;;;;;2.23;1.27;;;13.70;98.90;;;;;;4933707;29;20462;-80
2022/05/26 00:13:39;;;;;;;2.00;1.80;;;13.70;98.90;;;;;;4934037;29;20474;-80
2022/05/26 00:16:07;;;;;;;2.10;1.40;;;13.50;98.60;;;;;;4934283;29;20455;-80
2022/05/26 00:18:33;;;;;;;2.17;1.63;;;13.50;98.80;;;;;;4933573;29;20478;-80
2022/05/26 00:21:00;;;;;;;1.40;1.30;;;13.50;98.80;;;;;;4934061;29;20497;-80
2022/05/26 00:23:27;;;;;;;1.40;1.30;;;13.50;98.70;;;;;;4933416;29;20458;-80
2022/05/26 00:25:54;;;;;;;1.47;1.37;;;13.40;98.90;;;;;;4934217;29;20465;-80
2022/05/26 00:28:21;;;;;;;1.10;1.00;;;13.30;99.40;;;;;;4933759;29;20501;-80
2022/05/26 00:30:49;;;;;;;1.40;1.30;;;13.30;99.60;;;;;;4933758;29;20446;-80
2022/05/26 00:33:17;;;;;;;2.03;1.93;;;13.30;99.60;;;;;;4933155;29;20467;-80
2022/05/26 00:35:44;;;;;;;1.50;1.40;;;13.30;99.50;;;;;;4934107;29;20455;-80
2022/05/26 00:38:13;;;;;;;1.30;1.20;;;13.30;99.60;;;;;;4933561;29;20474;-80
2022/05/26 00:40:42;;;;;;;1.23;1.13;;;13.20;99.50;;;;;;4932316;29;20487;-80
2022/05/26 00:43:10;;;;;;;2.80;1.40;;;13.30;99.60;;;;;;4933061;29;20461;-79
2022/05/26 00:45:44;;;;;;;1.57;1.47;;;13.30;99.40;;;;;;4933142;29;20451;-80
2022/05/26 00:48:16;;;;;;;1.20;1.00;;;13.40;99.40;;;;;;4933590;29;20494;-79
2022/05/26 00:50:48;;;;;;;1.30;1.20;;;13.50;99.20;;;;;;4914739;29;20456;-80
2022/05/26 00:53:18;;;;;;;1.90;1.30;;;13.60;99.10;;;;;;4914779;29;20467;-80
2022/05/26 00:55:51;;;;;;;1.33;1.23;;;13.60;99.00;;;;;;4933359;29;20891;-80
2022/05/26 00:58:21;;;;;;;1.00;1.00;;;13.60;99.10;;;;;;4933175;29;20475;-80
2022/05/26 01:00:49;;;;;;;1.33;1.27;;;13.60;99.20;;;;;;4933113;29;20478;-80
2022/05/26 01:03:23;;;;;;;3.37;1.20;;;13.60;99.20;;;;;;4933572;29;20450;-80
2022/05/26 01:05:58;;;;;;;1.30;1.20;;;13.60;99.30;;;;;;4933500;29;20454;-80
2022/05/26 01:08:28;;;;;;;0.77;0.77;;;13.50;99.30;;;;;;4932821;29;20488;-80
2022/05/26 01:10:55;;;;;;;1.63;1.00;;;13.50;99.50;;;;;;4935701;29;20442;-79
2022/05/26 01:13:22;;;;;;;2.00;0.87;;;13.50;99.40;;;;;;4937040;29;20457;-80
2022/05/26 01:15:55;;;;;;;1.07;1.07;;;13.50;99.20;;;;;;4937352;29;20430;-80
2022/05/26 01:18:32;;;;;;;0.90;0.90;;;13.50;99.60;;;;;;4936840;29;20471;-80
2022/05/26 01:21:03;;;;;;;0.83;0.83;;;13.50;99.30;;;;;;4936116;29;20484;-80
2022/05/26 01:24:00;;;;;;;1.20;1.07;;;13.50;99.20;;;;;;4937078;29;20455;-80
2022/05/26 01:27:12;;;;;;;1.70;1.00;;;13.60;99.10;;;;;;4937126;29;20458;-80
2022/05/26 01:30:08;;;;;;;2.40;0.90;;;13.60;99.30;;;;;;4936916;29;20454;-80
2022/05/26 01:32:50;;;;;;;1.03;0.80;;;13.60;98.80;;;;;;4936826;29;20451;-80
2022/05/26 01:35:22;;;;;;;2.53;0.97;;;13.50;98.70;;;;;;4936378;29;20534;-80
2022/05/26 01:38:05;;;;;;;0.80;0.80;;;13.50;98.80;;;;;;4936523;29;20477;-80
2022/05/26 01:40:37;;;;;;;3.00;1.13;;;13.50;99.00;;;;;;4935374;29;20454;-80
2022/05/26 01:43:16;;;;;;;1.47;1.37;;;13.50;98.90;;;;;;4936189;29;20489;-80
2022/05/26 01:45:51;;;;;;;1.27;1.17;;;13.50;99.00;;;;;;4936341;29;20840;-79
2022/05/26 01:48:27;;;;;;;1.47;1.10;;;13.50;99.10;;;;;;4936166;29;20469;-80
2022/05/26 01:50:58;;;;;;;0.90;0.90;;;13.50;99.10;;;;;;4935621;29;20451;-80
2022/05/26 01:53:33;;;;;;;1.57;1.00;;;13.40;99.10;;;;;;4936230;29;20465;-80
2022/05/26 01:56:06;;;;;;;1.50;0.97;;;13.40;99.30;;;;;;4935831;29;20459;-80
2022/05/26 01:58:36;;;;;;;1.07;1.00;;;13.40;99.40;;;;;;4935535;29;20467;-80
2022/05/26 02:01:09;;;;;;;1.50;1.40;;;13.30;99.50;;;;;;4935075;29;20457;-80
2022/05/26 02:03:40;;;;;;;1.03;1.03;;;13.30;99.60;;;;;;4936416;29;20478;-80
2022/05/26 02:06:13;;;;;;;0.70;0.70;;;13.30;99.80;;;;;;4936026;29;20447;-80
2022/05/26 02:08:43;;;;;;;2.43;1.60;;;13.20;99.90;;;;;;4935230;29;20474;-80
2022/05/26 02:11:14;;;;;;;3.17;1.63;;;13.20;99.90;;;;;;4935291;29;20461;-80
2022/05/26 02:13:44;;;;;;;1.33;1.23;;;13.20;99.90;;;;;;4935918;29;20461;-80
2022/05/26 02:16:15;;;;;;;1.50;1.10;;;13.20;99.90;;;;;;4939048;29;20449;-79
2022/05/26 02:18:49;;;;;;;1.30;1.20;;;13.20;99.90;;;;;;4942641;29;20515;-79
2022/05/26 02:21:21;;;;;;;1.43;1.33;;;13.20;99.90;;;;;;4941755;29;20477;-79
2022/05/26 02:23:54;;;;;;;2.30;1.23;;;13.20;99.90;;;;;;4942847;29;20460;-79
2022/05/26 02:26:22;;;;;;;1.03;1.03;;;13.20;99.90;;;;;;4942636;29;20523;-79
2022/05/26 02:31:34;;;;;;;1.07;1.07;;;13.10;99.90;;;;;;4942711;29;20585;-79
2022/05/26 02:34:03;;;;;;;1.00;1.00;;;13.00;99.90;;;;;;4942433;29;20454;-79
2022/05/26 02:36:34;;;;;;;0.90;0.90;;;13.10;99.90;;;;;;4942654;29;20445;-79
2022/05/26 02:39:01;;;;;;;1.30;1.03;;;13.10;99.90;;;;;;4942295;29;20465;-79
2022/05/26 02:41:29;;;;;;;3.30;1.47;;;13.20;99.90;;;;;;4942188;29;20478;-79
2022/05/26 02:43:56;;;;;;;1.23;1.00;;;13.20;99.90;;;;;;4942186;29;20435;-79
2022/05/26 02:46:37;;;;;;;1.10;1.00;;;13.20;99.90;;;;;;4942419;29;20455;-79
2022/05/26 02:49:20;;;;;;;1.10;1.10;;;13.20;99.90;;;;;;4940177;29;20577;-78
2022/05/26 02:51:55;;;;;;;1.17;1.13;;;13.10;99.90;;;;;;4935747;29;20461;-82
2022/05/26 02:54:44;;;;;;;2.50;1.30;;;13.00;99.90;;;;;;4925189;29;20465;-81
2022/05/26 02:57:18;;;;;;;2.17;1.23;;;12.90;99.90;;;;;;4928018;29;20473;-81
2022/05/26 02:59:54;;;;;;;1.57;1.47;;;12.90;99.90;;;;;;4931270;29;20458;-79
2022/05/26 03:02:26;;;;;;;1.97;1.20;;;13.00;99.90;;;;;;4938558;29;20466;-79
2022/05/26 03:05:02;;;;;;;1.10;1.10;;;12.90;99.90;;;;;;4937224;29;20463;-78
2022/05/26 03:07:43;;;;;;;1.20;1.10;;;12.80;99.90;;;;;;4928841;29;20508;-78
2022/05/26 03:10:12;;;;;;;2.30;1.50;;;12.80;99.90;;;;;;4935270;29;20482;-79
2022/05/26 03:12:39;;;;;;;4.00;1.40;;;12.80;99.90;;;;;;4939637;29;20435;-78
2022/05/26 03:15:09;;;;;;;0.80;0.80;;;12.60;99.90;;;;;;4938039;29;20454;-79
2022/05/26 03:17:36;;;;;;;3.77;2.20;;;12.50;99.90;;;;;;4938393;29;20466;-79
2022/05/26 03:20:05;;;;;;;1.40;1.30;;;12.50;99.90;;;;;;4938772;29;20445;-79
2022/05/26 03:22:32;;;;;;;3.73;1.30;;;12.60;99.90;;;;;;4939115;29;20490;-79
2022/05/26 03:24:58;;;;;;;1.40;1.30;;;12.60;99.90;;;;;;4941661;29;20442;-79
2022/05/26 03:27:25;;;;;;;1.17;1.17;;;12.60;99.90;;;;;;4941466;29;20458;-79
2022/05/26 03:29:53;;;;;;;1.30;1.10;;;12.50;99.90;;;;;;4941354;29;20450;-79
2022/05/26 03:32:20;;;;;;;1.80;1.30;;;12.50;99.90;;;;;;4941112;29;20467;-79
2022/05/26 03:43:01;;;;;;;1.07;1.07;;;12.40;99.90;;;;;;4938126;29;20476;-80
2022/05/26 03:45:28;;;;;;;1.50;1.40;;;12.20;99.90;;;;;;4936044;29;20553;-80
2022/05/26 03:47:55;;;;;;;1.30;1.10;;;12.30;99.90;;;;;;4934454;29;20762;-80
2022/05/26 03:50:22;;;;;;;1.23;1.13;;;12.30;99.90;;;;;;4934693;29;20455;-80
2022/05/26 03:52:51;;;;;;;1.00;1.00;;;12.10;99.90;;;;;;4934710;29;20450;-80
2022/05/26 03:55:18;;;;;;;1.10;1.10;;;12.10;99.90;;;;;;4935086;29;20460;-80
2022/05/26 03:57:45;;;;;;;1.80;1.70;;;12.10;99.90;;;;;;4934469;29;20671;-80
2022/05/26 04:00:13;;;;;;;1.03;1.03;;;12.00;99.90;;;;;;4934730;29;20459;-80
2022/05/26 04:02:40;;;;;;;1.60;1.50;;;12.10;99.90;;;;;;4933746;29;20489;-81
2022/05/26 04:05:08;;;;;;;1.30;1.20;;;12.10;99.90;;;;;;4934934;29;20454;-80
2022/05/26 04:07:36;;;;;;;1.97;1.57;;;12.10;99.90;;;;;;4934554;29;20482;-80
2022/05/26 04:10:05;;;;;;;1.37;1.13;;;12.10;99.90;;;;;;4934892;29;20457;-80
2022/05/26 04:12:32;;;;;;;1.40;1.30;;;12.00;99.90;;;;;;4934494;29;20454;-80
2022/05/26 04:14:59;;;;;;;1.37;1.27;;;12.00;99.90;;;;;;4934735;29;20497;-80
2022/05/26 04:17:26;;;;;;;1.10;1.00;;;12.00;99.90;;;;;;4934218;29;20477;-80
2022/05/26 04:19:53;;;;;;;1.53;1.23;;;12.00;99.90;;;;;;4934367;29;20464;-80
2022/05/26 04:22:21;;;;;;;1.87;1.23;;;12.10;99.90;;;;;;4934448;29;20486;-80
2022/05/26 04:24:50;;;;;;;2.47;0.90;;;12.10;99.90;;;;;;4934289;29;20453;-80
2022/05/26 04:27:21;;;;;;;2.50;1.40;;;12.10;99.90;;;;;;4933534;29;20462;-81
2022/05/26 04:30:01;;;;;;;1.10;1.10;;;12.20;99.90;;;;;;4924137;29;20458;-80
2022/05/26 04:32:29;;;;;;;1.20;1.20;;;12.30;99.90;;;;;;4924379;29;20458;-80
2022/05/26 04:34:56;;;;;;;2.07;1.97;;;12.30;99.90;;;;;;4921671;29;20465;-79
2022/05/26 04:37:24;;;;;;;1.33;1.13;;;12.30;99.90;;;;;;4931801;29;20478;-79
2022/05/26 04:39:53;;;;;;;1.57;1.00;;;12.30;99.90;;;;;;4938637;29;20458;-78
2022/05/26 04:42:22;;;;;;;0.90;0.90;;;12.30;99.90;;;;;;4940392;29;20482;-79
2022/05/26 04:44:49;;;;;;;2.37;1.20;;;12.40;99.90;;;;;;4941779;29;20528;-78
2022/05/26 04:47:17;;;;;;;1.63;1.43;;;12.50;99.90;;;;;;4941444;29;20478;-79
2022/05/26 04:49:44;;;;;;;2.10;1.30;;;12.50;99.90;;;;;;4937880;29;20442;-77
2022/05/26 04:52:14;;;;;;;2.43;1.03;;;12.60;99.90;;;;;;4944332;29;20445;-80
2022/05/26 04:54:42;;;;;;;1.63;1.40;;;12.70;99.90;;;;;;4944233;29;20449;-80
2022/05/26 04:57:11;;;;;;;1.27;1.17;;;12.70;99.90;;;;;;4944254;29;20446;-79
2022/05/26 04:59:40;;;;;;;1.80;1.30;;;12.70;99.90;;;;;;4944228;29;20434;-79
2022/05/26 05:02:10;;;;;;;1.33;1.23;;;12.70;99.90;;;;;;4943776;29;20478;-79
2022/05/26 05:04:37;;;;;;;2.10;1.87;;;12.70;99.90;;;;;;4944003;29;20465;-79
2022/05/26 05:07:05;;;;;;;2.33;1.30;;;12.80;99.90;;;;;;4944286;29;20438;-78
2022/05/26 05:09:31;;;;;;;3.40;1.27;;;12.80;99.90;;;;;;4943937;29;20442;-79
2022/05/26 05:11:58;;;;;;;1.20;0.97;;;12.80;99.90;;;;;;4943571;29;20460;-78
2022/05/26 05:14:26;;;;;;;1.00;1.00;;;13.00;99.90;;;;;;4943876;29;20469;-78
2022/05/26 05:16:54;;;;;;;0.97;0.67;;;13.00;99.90;;;;;;4943776;29;20450;-78
2022/05/26 05:19:20;;;;;;;0.70;0.70;;;13.10;99.90;;;;;;4943912;29;20469;-79
2022/05/26 05:21:53;;;;;;;2.30;1.23;;;13.20;99.90;;;;;;4943261;29;20461;-78
2022/05/26 05:24:24;;;;;;;1.50;1.40;;;13.30;99.90;;;;;;4943664;29;20453;-80
2022/05/26 05:26:59;;;;;;;2.10;1.93;;;13.40;99.90;;;;;;4943472;29;20447;-79
2022/05/26 05:29:30;;;;;;;1.70;1.10;;;13.50;99.90;;;;;;4943622;29;20466;-79
2022/05/26 05:32:02;;;;;;;1.63;1.03;;;13.60;99.90;;;;;;4943149;29;20431;-79
2022/05/26 05:34:35;;;;;;;1.80;1.17;;;13.70;99.90;;;;;;4943244;29;20458;-79
2022/05/26 05:37:02;;;;;;;1.13;1.03;;;13.70;99.90;;;;;;4941868;29;20442;-78
2022/05/26 05:39:29;;;;;;;2.30;1.80;;;13.80;99.90;;;;;;4940540;29;20446;-79
2022/05/26 05:41:57;;;;;;;1.33;1.23;;;13.90;99.90;;;;;;4940103;29;20464;-78
2022/05/26 05:44:24;;;;;;;2.63;1.63;;;14.00;99.90;;;;;;4940739;29;20502;-78
2022/05/26 05:46:57;;;;;;;1.40;0.80;;;14.10;99.90;;;;;;4935571;29;20452;-78
2022/05/26 05:49:27;;;;;;;1.07;1.07;;;14.20;99.90;;;;;;4933228;29;20494;-78
2022/05/26 05:51:55;;;;;;;1.70;1.60;;;14.20;99.90;;;;;;4932636;29;20486;-78
2022/05/26 05:54:22;;;;;;;1.30;1.20;;;14.30;99.90;;;;;;4933017;29;20475;-79
2022/05/26 05:56:49;;;;;;;1.30;1.20;;;14.30;99.90;;;;;;4930968;29;20463;-78
2022/05/26 05:59:16;;;;;;;1.40;1.00;;;14.30;99.90;;;;;;4932762;29;20484;-78
2022/05/26 06:01:43;;;;;;;3.60;1.30;;;14.40;99.90;;;;;;4931887;29;20450;-79
2022/05/26 06:04:10;;;;;;;0.80;0.80;;;14.60;99.90;;;;;;4932098;29;20492;-80
2022/05/26 06:06:40;;;;;;;0.87;0.87;;;14.90;99.90;;;;;;4906999;29;20456;-81
2022/05/26 06:09:08;;;;;;;3.10;1.10;;;15.00;99.90;;;;;;4904766;29;20500;-81
2022/05/26 06:11:34;;;;;;;1.00;1.00;;;15.20;99.70;;;;;;4921716;29;20831;-82
2022/05/26 06:14:02;;;;;;;1.03;1.03;;;15.40;99.00;;;;;;4923029;29;20464;-81
2022/05/26 06:16:29;;;;;;;1.53;0.90;;;15.40;98.50;;;;;;4922796;29;20466;-80
2022/05/26 06:18:55;;;;;;;0.80;0.80;;;15.60;98.60;;;;;;4921942;29;20484;-82
2022/05/26 06:21:22;;;;;;;1.53;1.10;;;15.60;98.00;;;;;;4922014;29;20459;-82
2022/05/26 06:23:53;;;;;;;0.93;0.80;;;15.80;98.30;;;;;;4922358;29;20518;-81
2022/05/26 06:26:20;;;;;;;1.37;1.30;;;16.00;98.10;;;;;;4922489;29;20460;-81
2022/05/26 06:31:31;;;;;;;2.77;1.10;;;16.00;97.40;;;;;;4921525;29;20468;-81
2022/05/26 06:39:24;;;;;;;1.27;0.90;;;15.80;97.60;;;;;;4921619;29;20459;-82
2022/05/26 06:42:07;;;;;;;1.37;0.90;;;15.90;97.30;;;;;;4921982;29;20456;-82
2022/05/26 06:44:37;;;;;;;0.90;0.73;;;15.80;97.40;;;;;;4922012;29;20497;-82
2022/05/26 06:47:06;;;;;;;2.27;1.17;;;16.00;97.20;;;;;;4921919;29;20465;-82
2022/05/26 06:49:33;;;;;;;0.70;0.70;;;16.00;97.50;;;;;;4922268;29;20478;-82
2022/05/26 06:52:00;;;;;;;1.23;1.13;;;16.00;97.60;;;;;;4921810;29;20491;-81
2022/05/26 06:54:32;;;;;;;1.37;1.00;;;16.10;97.20;;;;;;4921400;29;20507;-82
2022/05/26 06:56:59;;;;;;;0.80;0.80;;;16.20;97.20;;;;;;4923598;29;20460;-81
2022/05/26 06:59:26;;;;;;;3.27;1.30;;;16.30;97.10;;;;;;4926864;29;20481;-80
2022/05/26 07:01:53;;;;;;;1.17;1.07;;;16.50;97.10;;;;;;4926854;29;20484;-82
2022/05/26 07:04:20;;;;;;;3.13;2.43;;;16.60;96.40;;;;;;4923866;29;20493;-81
2022/05/26 07:06:50;;;;;;;1.50;1.40;;;16.60;96.90;;;;;;4924853;29;20468;-82
2022/05/26 07:09:17;;;;;;;2.20;0.97;;;16.60;96.90;;;;;;4923665;29;20473;-82
2022/05/26 07:11:45;;;;;;;1.60;1.50;;;16.70;95.90;;;;;;4924064;29;21072;-83
2022/05/26 07:14:12;;;;;;;1.00;1.00;;;16.70;95.70;;;;;;4923996;29;20454;-82
2022/05/26 07:16:39;;;;;;;1.00;1.00;;;16.80;96.00;;;;;;4925146;29;20472;-82
2022/05/26 07:19:06;;;;;;;1.40;0.73;;;16.60;96.00;;;;;;4924485;29;20484;-82
2022/05/26 07:21:33;;;;;;;0.90;0.87;;;16.60;96.20;;;;;;4923674;29;20457;-81
2022/05/26 07:24:01;;;;;;;0.80;0.80;;;16.60;96.00;;;;;;4925498;29;20504;-80
2022/05/26 07:26:32;;;;;;;1.93;0.90;;;16.50;95.70;;;;;;4925690;29;20457;-79
2022/05/26 07:29:03;;;;;;;1.70;1.67;;;16.60;96.00;;;;;;4925486;29;20464;-80
2022/05/26 07:31:32;;;;;;;1.10;1.00;;;16.80;95.20;;;;;;4924802;29;20466;-81
2022/05/26 07:34:29;;;;;;;2.07;1.00;;;16.80;95.60;;;;;;4918957;29;20457;-80
2022/05/26 07:42:43;;;;;;;2.33;1.27;;;17.00;94.60;;;;;;4916259;29;20436;-80
2022/05/26 07:45:13;;;;;;;0.53;0.53;;;17.20;95.60;;;;;;4913759;29;20793;-80
2022/05/26 07:47:40;;;;;;;1.17;1.07;;;17.10;94.40;;;;;;4915135;29;20560;-81
2022/05/26 07:50:11;;;;;;;0.87;0.87;;;17.10;94.50;;;;;;4915568;29;20448;-81
2022/05/26 07:52:38;;;;;;;1.60;0.90;;;17.30;94.90;;;;;;4915690;29;20464;-81
2022/05/26 07:55:06;;;;;;;1.30;1.20;;;17.20;93.80;;;;;;4914420;29;20483;-79
2022/05/26 07:57:32;;;;;;;2.20;0.50;;;17.40;93.20;;;;;;4917144;29;20500;-80
2022/05/26 07:59:59;;;;;;;1.57;1.00;;;17.40;92.90;;;;;;4921007;29;20460;-81
2022/05/26 08:02:28;;;;;;;0.87;0.87;;;17.50;93.20;;;;;;4913560;29;20816;-80
2022/05/26 08:04:55;;;;;;;2.20;0.80;;;17.60;93.00;;;;;;4920699;29;20485;-79
2022/05/26 08:07:22;;;;;;;0.80;0.67;;;17.70;93.00;;;;;;4914558;29;20822;-79
2022/05/26 08:09:48;;;;;;;1.70;1.60;;;17.90;93.50;;;;;;4916994;29;20462;-79
2022/05/26 08:12:15;;;;;;;1.07;0.90;;;18.10;93.80;;;;;;4917693;29;20450;-79
2022/05/26 08:14:44;;;;;;;0.83;0.83;;;18.40;93.30;;;;;;4915952;29;20453;-80
2022/05/26 08:17:13;;;;;;;1.50;0.87;;;18.50;92.50;;;;;;4921477;29;20462;-80
2022/05/26 08:19:42;;;;;;;0.60;0.60;;;18.80;92.10;;;;;;4924356;29;20451;-82
2022/05/26 08:22:09;;;;;;;0.80;0.80;;;18.80;91.40;;;;;;4922772;29;20458;-82
2022/05/26 08:24:36;;;;;;;1.90;0.80;;;18.80;92.10;;;;;;4921606;29;20491;-80
2022/05/26 08:27:03;;;;;;;0.83;0.80;;;18.80;91.40;;;;;;4925984;29;20815;-81
2022/05/26 08:29:30;;;;;;;1.83;1.57;;;18.80;91.90;;;;;;4922080;29;20460;-82
2022/05/26 08:31:57;;;;;;;0.97;0.83;;;18.60;91.50;;;;;;4925317;29;20451;-80
2022/05/26 08:34:23;;;;;;;2.23;0.80;;;18.70;92.00;;;;;;4920841;29;20451;-80
2022/05/26 08:36:51;;;;;;;0.83;0.80;;;18.60;91.70;;;;;;4928275;29;20458;-81
2022/05/26 08:39:18;;;;;;;1.13;1.03;;;18.90;92.90;;;;;;4931127;29;20475;-81
2022/05/26 08:41:48;;;;;;;0.80;0.80;;;19.10;91.40;;;;;;4932299;29;20468;-81
2022/05/26 08:44:27;;;;;;;1.13;0.70;;;18.80;91.40;;;;;;4932374;29;20498;-81
2022/05/26 08:47:01;;;;;;;1.53;0.80;;;18.50;91.40;;;;;;4932391;29;20457;-78
2022/05/26 08:49:35;;;;;;;1.07;0.73;;;18.20;91.50;;;;;;4918483;29;20519;-81
2022/05/26 08:52:09;;;;;;;1.10;1.00;;;18.40;92.10;;;;;;4920411;29;20454;-82
2022/05/26 08:54:39;;;;;;;0.70;0.70;;;18.40;91.80;;;;;;4920047;29;20461;-81
2022/05/26 08:57:09;;;;;;;0.90;0.90;;;18.60;91.30;;;;;;4923553;29;20977;-82
2022/05/26 08:59:40;;;;;;;1.80;1.43;;;18.30;92.00;;;;;;4922837;29;20465;-81
2022/05/26 09:02:22;;;;;;;1.20;1.20;;;18.50;92.10;;;;;;4922270;29;20457;-80
2022/05/26 09:04:49;;;;;;;1.13;1.00;;;18.70;91.40;;;;;;4923235;29;20494;-80
2022/05/26 09:12:59;;;;;;;1.13;0.90;;;18.70;91.00;;;;;;4922258;29;20902;-80
2022/05/26 09:15:27;;;;;;;0.80;0.80;;;18.50;92.00;;;;;;4922804;29;21059;-80
2022/05/26 09:17:54;;;;;;;1.27;0.80;;;18.50;91.50;;;;;;4903179;29;20474;-77
2022/05/26 09:20:30;;;;;;;1.27;0.97;;;18.60;92.00;;;;;;4912408;29;20454;-77
2022/05/26 09:23:09;;;;;;;0.80;0.80;;;18.70;91.60;;;;;;4930472;29;20457;-79
2022/05/26 09:25:41;;;;;;;0.87;0.87;;;18.60;91.30;;;;;;4938352;29;20661;-78
2022/05/26 09:28:09;;;;;;;0.83;0.83;;;18.60;91.10;;;;;;4930154;29;20513;-78
2022/05/26 09:30:37;;;;;;;1.43;0.93;;;19.00;91.40;;;;;;4921798;29;20461;-78
2022/05/26 09:33:18;;;;;;;1.27;1.17;;;19.10;91.40;;;;;;4935195;29;20450;-78
2022/05/26 09:35:45;;;;;;;1.00;0.90;;;19.10;90.70;;;;;;4937436;29;20500;-77
2022/05/26 09:38:18;;;;;;;1.03;1.03;;;19.20;90.70;;;;;;4938967;29;20469;-77
2022/05/26 09:40:46;;;;;;;2.00;0.90;;;19.00;90.70;;;;;;4939138;29;20453;-79
2022/05/26 09:43:24;;;;;;;0.60;0.60;;;18.80;91.30;;;;;;4929711;29;20444;-78
2022/05/26 09:45:53;;;;;;;0.93;0.93;;;18.70;91.00;;;;;;4920968;29;20458;-78
2022/05/26 09:48:26;;;;;;;0.90;0.90;;;18.70;91.20;;;;;;4936204;29;20493;-79
2022/05/26 09:50:55;;;;;;;0.67;0.67;;;18.60;91.40;;;;;;4932849;29;20460;-80
2022/05/26 09:53:32;;;;;;;0.97;0.80;;;18.50;91.60;;;;;;4932869;29;20466;-80
2022/05/26 09:55:58;;;;;;;0.93;0.83;;;18.20;91.30;;;;;;4914321;29;20834;-80
2022/05/26 09:58:29;;;;;;;1.80;1.30;;;18.20;91.70;;;;;;4926446;29;20481;-79
2022/05/26 10:00:58;;;;;;;0.80;0.80;;;17.90;92.10;;;;;;4933461;29;20509;-81
2022/05/26 10:03:34;;;;;;;1.27;0.80;;;17.90;92.10;;;;;;4934988;29;20451;-79
2022/05/26 10:06:16;;;;;;;0.70;0.70;;;17.70;92.60;;;;;;4928883;29;20552;-82
2022/05/26 10:08:52;;;;;;;1.20;0.80;;;17.80;93.30;;;;;;4907621;29;20486;-80
2022/05/26 10:11:32;;;;;;;1.43;1.10;;;17.90;92.80;;;;;;4923523;29;20453;-79
2022/05/26 10:14:10;;;;;;;0.57;0.57;;;18.10;92.30;;;;;;4923775;29;20453;-79
2022/05/26 10:16:44;;;;;;;2.73;1.10;;;18.30;92.60;;;;;;4921739;29;20458;-80
2022/05/26 10:19:24;;;;;;;2.20;0.90;;;18.40;92.50;;;;;;4924537;29;20484;-80
2022/05/26 10:22:16;;;;;;;1.37;0.80;;;18.40;92.00;;;;;;4924130;29;20469;-80
2022/05/26 10:24:56;;;;;;;0.70;0.70;;;18.50;92.40;;;;;;4923435;29;20498;-79
2022/05/26 10:27:52;;;;;;;0.90;0.90;;;18.20;91.60;;;;;;4923771;29;20482;-78
2022/05/26 10:30:29;;;;;;;1.23;1.00;;;18.10;92.10;;;;;;4921658;29;20464;-80
2022/05/26 10:33:10;;;;;;;0.73;0.73;;;18.20;92.30;;;;;;4910165;29;20458;-80
2022/05/26 10:36:23;;;;;;;1.43;0.80;;;18.30;92.20;;;;;;4907059;29;20979;-84
2022/05/26 10:39:23;;;;;;;1.93;1.07;;;18.30;92.10;;;;;;4927917;29;20517;-84
2022/05/26 10:41:56;;;;;;;0.90;0.90;;;18.40;92.10;;;;;;4923413;29;20501;-83
2022/05/26 10:44:29;;;;;;;1.10;1.00;;;18.50;92.10;;;;;;4925168;29;20500;-81
2022/05/26 10:47:01;;;;;;;0.87;0.80;;;18.70;92.50;;;;;;4921063;29;20494;-79
2022/05/26 10:49:34;;;;;;;1.57;1.47;;;18.80;91.40;;;;;;4922049;29;20448;-81
2022/05/26 10:52:09;;;;;;;1.00;0.80;;;18.80;91.10;;;;;;4924156;29;20465;-81
2022/05/26 10:55:21;;;;;;;1.50;0.97;;;18.30;91.60;;;;;;4924476;29;20523;-82
2022/05/26 10:57:56;;;;;;;1.70;0.90;;;18.20;91.70;;;;;;4922081;29;20549;-80
2022/05/26 11:00:31;;;;;;;0.90;0.90;;;18.10;92.30;;;;;;4924481;29;20464;-84
2022/05/26 11:09:50;;;;;;;0.93;0.93;;;18.30;92.80;;;;;;4819765;29;20567;-82
2022/05/26 11:12:31;;;;;;;1.10;1.00;;;18.40;92.90;;;;;;4906926;29;20466;-83
2022/05/26 11:17:52;;;;;;;1.23;1.23;;;18.40;92.80;;;;;;4927775;29;20472;-83
2022/05/26 11:20:22;;;;;;;2.50;0.90;;;18.60;93.20;;;;;;4929655;29;20462;-83
2022/05/26 11:22:51;;;;;;;1.70;1.50;;;18.80;93.10;;;;;;4909258;29;20454;-82
2022/05/26 11:25:26;;;;;;;1.47;1.10;;;18.90;92.50;;;;;;4912692;29;20495;-83
2022/05/26 11:27:56;;;;;;;3.07;0.90;;;18.80;92.00;;;;;;4927850;29;20474;-82
2022/05/26 11:36:18;;;;;;;1.27;0.90;;;18.80;92.40;;;;;;4927791;29;20448;-82
2022/05/26 11:38:47;;;;;;;0.93;0.93;;;18.80;92.90;;;;;;4926423;29;20478;-82
2022/05/26 11:41:26;;;;;;;1.90;0.83;;;18.90;93.00;;;;;;4926177;29;20457;-82
2022/05/26 11:44:01;;;;;;;1.23;0.90;;;18.90;92.20;;;;;;4925823;29;20465;-82
2022/05/26 11:46:49;;;;;;;2.20;0.70;;;19.00;92.70;;;;;;4926374;29;20464;-83
2022/05/26 11:49:49;;;;;;;1.13;0.87;;;19.20;91.40;;;;;;4926791;29;20486;-82
2022/05/26 11:52:26;;;;;;;1.43;1.00;;;19.20;91.30;;;;;;4925525;29;20588;-82
2022/05/26 11:55:27;;;;;;;0.87;0.83;;;19.30;91.70;;;;;;4925744;29;20554;-83
2022/05/26 11:57:55;;;;;;;1.00;1.00;;;19.60;91.40;;;;;;4925291;29;20479;-84
2022/05/26 12:00:37;;;;;;;0.80;0.80;;;19.70;91.70;;;;;;4921560;29;20450;-81
2022/05/26 12:03:30;;;;;;;1.40;1.03;;;19.80;91.50;;;;;;4924631;29;20463;-83
2022/05/26 12:06:16;;;;;;;0.90;0.90;;;20.10;91.50;;;;;;4915703;29;20487;-82
2022/05/26 12:09:01;;;;;;;0.73;0.73;;;20.20;89.60;;;;;;4926199;29;20485;-83
2022/05/26 12:11:57;;;;;;;2.50;1.40;;;20.00;90.30;;;;;;4925175;29;20469;-81
2022/05/26 12:14:27;;;;;;;1.67;1.00;;;19.80;90.50;;;;;;4925840;29;20469;-82
2022/05/26 12:17:14;;;;;;;1.87;0.83;;;19.70;90.30;;;;;;4925605;29;20462;-82
2022/05/26 12:19:44;;;;;;;1.73;1.10;;;20.00;90.60;;;;;;4926393;29;20527;-82
2022/05/26 12:22:22;;;;;;;2.00;1.07;;;19.60;90.10;;;;;;4923403;29;20466;-82
2022/05/26 12:25:17;;;;;;;1.60;1.50;;;19.10;91.00;;;;;;4923826;29;20556;-83
2022/05/26 12:28:06;;;;;;;2.60;1.10;;;18.50;91.40;;;;;;4921155;29;20474;-81
2022/05/26 12:31:02;;;;;;;4.70;1.40;;;18.30;92.20;;;;;;4923179;29;20464;-83
2022/05/26 12:34:06;;;;;;;3.13;1.30;;;18.00;92.80;;;;;;4922114;29;20453;-83
2022/05/26 12:36:53;;;;;;;1.77;1.10;;;17.90;93.10;;;;;;4917893;29;20457;-84
2022/05/26 12:39:33;;;;;;;1.07;1.07;;;17.70;93.10;;;;;;4922198;29;20474;-84
2022/05/26 12:42:05;;;;;;;1.40;1.30;;;17.80;93.50;;;;;;4922688;29;20463;-83
2022/05/26 12:44:58;;;;;;;1.47;1.37;;;17.90;93.40;;;;;;4922577;29;20498;-83
2022/05/26 12:47:47;;;;;;;1.30;1.20;;;18.40;93.70;;;;;;4920301;29;20486;-83
2022/05/26 12:50:18;;;;;;;1.90;1.50;;;18.90;92.80;;;;;;4923071;29;20453;-84
2022/05/26 12:53:02;;;;;;;0.90;0.90;;;19.40;92.40;;;;;;4922601;29;20454;-83
2022/05/26 12:55:33;;;;;;;0.87;0.83;;;19.70;91.50;;;;;;4922926;29;20447;-83
2022/05/26 12:58:04;;;;;;;2.93;1.37;;;19.90;91.30;;;;;;4922740;29;20488;-84
2022/05/26 13:00:34;;;;;;;1.20;1.10;;;20.30;91.30;;;;;;4922262;29;20454;-83
2022/05/26 13:03:04;;;;;;;2.20;0.90;;;20.70;90.80;;;;;;4922698;29;20462;-84
2022/05/26 13:05:35;;;;;;;3.77;1.50;;;21.00;88.00;;;;;;4923179;29;20485;-84
2022/05/26 13:08:04;;;;;;;1.40;1.33;;;21.50;88.00;;;;;;4926686;29;20467;-84
2022/05/26 13:10:35;;;;;;;1.10;1.10;;;21.80;86.20;;;;;;4926295;29;20478;-84
2022/05/26 13:13:05;;;;;;;0.80;0.80;;;21.50;85.20;;;;;;4926837;29;20454;-84
2022/05/26 13:15:31;;;;;;;0.70;0.70;;;21.10;84.90;;;;;;4927177;29;20460;-84
2022/05/26 13:17:58;;;;;;;0.80;0.80;;;21.20;85.00;;;;;;4926630;29;20467;-84
2022/05/26 13:20:32;;;;;;;2.03;1.20;;;21.00;84.60;;;;;;4926821;29;20450;-84
2022/05/26 13:23:00;;;;;;;1.27;0.90;;;20.50;85.70;;;;;;4926311;29;20447;-84
2022/05/26 13:25:32;;;;;;;0.80;0.80;;;19.80;88.50;;;;;;4926431;29;20839;-84
2022/05/26 13:28:01;;;;;;;1.00;1.00;;;19.60;89.30;;;;;;4926138;29;20478;-83
2022/05/26 13:33:21;;;;;;;1.27;1.10;;;19.50;90.40;;;;;;4926343;29;20429;-84
2022/05/26 13:35:51;;;;;;;1.30;1.20;;;19.30;90.60;;;;;;4926582;29;20461;-84
2022/05/26 13:38:32;;;;;;;1.60;1.30;;;19.40;90.50;;;;;;4926498;29;20478;-83
2022/05/26 13:41:02;;;;;;;1.17;1.17;;;19.20;91.00;;;;;;4926323;29;20814;-84
2022/05/26 13:43:31;;;;;;;1.93;1.17;;;18.90;90.80;;;;;;4926800;29;20468;-84
2022/05/26 13:45:58;;;;;;;1.20;0.90;;;18.90;91.30;;;;;;4925977;29;20494;-85
2022/05/26 13:48:32;;;;;;;1.30;1.20;;;18.70;91.40;;;;;;4926326;29;20496;-84
2022/05/26 13:51:13;;;;;;;3.67;1.10;;;18.60;91.90;;;;;;4925970;29;20450;-85
2022/05/26 13:53:42;;;;;;;2.43;1.40;;;18.50;92.10;;;;;;4926205;29;20470;-85
2022/05/26 13:56:15;;;;;;;1.50;1.40;;;18.70;93.40;;;;;;4926150;29;20458;-85
2022/05/26 13:58:45;;;;;;;2.30;1.40;;;18.70;93.50;;;;;;4925730;29;20459;-83
2022/05/26 14:01:14;;;;;;;0.90;0.90;;;18.80;93.90;;;;;;4925885;29;20453;-82
2022/05/26 14:03:41;;;;;;;3.57;1.80;;;19.10;93.00;;;;;;4925455;29;20485;-82